sensor_id;sensor_type;location;lat;lon;timestamp;pressure;altitude;pressure_sealevel;temperature;humidity
59654;BME280;66556;52.008;5.432;2023-03-14T00:01:27;98872.0;;;21.53;42.83
59654;BME280;66556;52.008;5.432;2023-03-14T00:04:39;98877.0;;;21.7;42.57
59654;BME280;66556;52.008;5.432;2023-03-14T00:06:16;98890.0;;;21.82;41.8
59654;BME280;66556;52.008;5.432;2023-03-14T00:07:53;98884.0;;;21.73;42.06
59654;BME280;66556;52.008;5.432;2023-03-14T00:11:07;98880.0;;;21.83;41.55
59654;BME280;66556;52.008;5.432;2023-03-14T00:12:43;98880.0;;;21.81;41.46
59654;BME280;66556;52.008;5.432;2023-03-14T00:14:20;98881.0;;;21.44;42.11
59654;BME280;66556;52.008;5.432;2023-03-14T00:17:39;98880.0;;;21.52;41.85
59654;BME280;66556;52.008;5.432;2023-03-14T00:19:15;98872.0;;;21.13;42.22
59654;BME280;66556;52.008;5.432;2023-03-14T00:20:51;98877.0;;;21.06;42.29
59654;BME280;66556;52.008;5.432;2023-03-14T00:22:29;98878.0;;;21.79;40.99
59654;BME280;66556;52.008;5.432;2023-03-14T00:25:43;98875.0;;;21.21;41.56
59654;BME280;66556;52.008;5.432;2023-03-14T00:27:19;98872.0;;;21.05;41.5
59654;BME280;66556;52.008;5.432;2023-03-14T00:28:55;98873.0;;;20.86;41.79
59654;BME280;66556;52.008;5.432;2023-03-14T00:32:07;98874.0;;;20.78;41.83
59654;BME280;66556;52.008;5.432;2023-03-14T00:33:44;98878.0;;;21.26;40.58
59654;BME280;66556;52.008;5.432;2023-03-14T00:35:21;98882.0;;;21.49;40.37
59654;BME280;66556;52.008;5.432;2023-03-14T00:36:57;98886.0;;;20.94;41.03
59654;BME280;66556;52.008;5.432;2023-03-14T00:40:10;98881.0;;;21.42;40.67
59654;BME280;66556;52.008;5.432;2023-03-14T00:41:46;98883.0;;;20.93;41.49
59654;BME280;66556;52.008;5.432;2023-03-14T00:43:22;98883.0;;;21.09;41.34
59654;BME280;66556;52.008;5.432;2023-03-14T00:46:35;98877.0;;;21.25;40.78
59654;BME280;66556;52.008;5.432;2023-03-14T00:48:11;98872.0;;;20.8;41.59
59654;BME280;66556;52.008;5.432;2023-03-14T00:49:48;98885.0;;;20.34;42.71
59654;BME280;66556;52.008;5.432;2023-03-14T00:53:00;98880.0;;;20.29;42.91
59654;BME280;66556;52.008;5.432;2023-03-14T00:54:36;98897.0;;;20.16;43.56
59654;BME280;66556;52.008;5.432;2023-03-14T00:56:13;98901.0;;;20.13;43.7
59654;BME280;66556;52.008;5.432;2023-03-14T00:57:49;98893.0;;;20.25;43.3
59654;BME280;66556;52.008;5.432;2023-03-14T01:01:05;98894.0;;;19.79;44.56
59654;BME280;66556;52.008;5.432;2023-03-14T01:02:42;98894.0;;;19.53;45.42
59654;BME280;66556;52.008;5.432;2023-03-14T01:04:20;98895.0;;;19.66;45.31
59654;BME280;66556;52.008;5.432;2023-03-14T01:07:42;98885.0;;;19.8;45.38
59654;BME280;66556;52.008;5.432;2023-03-14T01:09:18;98887.0;;;19.97;45.22
59654;BME280;66556;52.008;5.432;2023-03-14T01:10:54;98892.0;;;19.38;46.69
59654;BME280;66556;52.008;5.432;2023-03-14T01:12:31;98897.0;;;20.02;45.52
59654;BME280;66556;52.008;5.432;2023-03-14T01:15:43;98899.0;;;19.3;47.92
59654;BME280;66556;52.008;5.432;2023-03-14T01:17:19;98925.0;;;19.61;47.29
59654;BME280;66556;52.008;5.432;2023-03-14T01:18:55;98917.0;;;19.05;50.79
59654;BME280;66556;52.008;5.432;2023-03-14T01:22:08;98919.0;;;19.25;51.08
59654;BME280;66556;52.008;5.432;2023-03-14T01:23:45;98919.0;;;19.25;51.36
59654;BME280;66556;52.008;5.432;2023-03-14T01:25:22;98917.0;;;19.72;50.4
59654;BME280;66556;52.008;5.432;2023-03-14T01:28:34;98920.0;;;19.05;52.03
59654;BME280;66556;52.008;5.432;2023-03-14T01:30:11;98928.0;;;19.72;51.05
59654;BME280;66556;52.008;5.432;2023-03-14T01:31:49;98928.0;;;19.61;51.88
59654;BME280;66556;52.008;5.432;2023-03-14T01:33:25;98925.0;;;19.5;52.37
59654;BME280;66556;52.008;5.432;2023-03-14T01:36:38;98915.0;;;19.7;52.14
59654;BME280;66556;52.008;5.432;2023-03-14T01:38:14;98910.0;;;19.18;53.06
59654;BME280;66556;52.008;5.432;2023-03-14T01:39:50;98914.0;;;19.5;53.08
59654;BME280;66556;52.008;5.432;2023-03-14T01:43:12;98906.0;;;19.59;52.65
59654;BME280;66556;52.008;5.432;2023-03-14T01:44:53;98905.0;;;19.31;52.63
59654;BME280;66556;52.008;5.432;2023-03-14T01:46:34;98905.0;;;19.07;53.76
59654;BME280;66556;52.008;5.432;2023-03-14T01:48:13;98897.0;;;19.09;52.79
59654;BME280;66556;52.008;5.432;2023-03-14T01:51:34;98893.0;;;19.13;53.15
59654;BME280;66556;52.008;5.432;2023-03-14T01:53:12;98891.0;;;19.52;52.11
59654;BME280;66556;52.008;5.432;2023-03-14T01:54:51;98889.0;;;19.29;52.56
59654;BME280;66556;52.008;5.432;2023-03-14T01:56:30;98885.0;;;19.43;52.11
59654;BME280;66556;52.008;5.432;2023-03-14T01:59:47;98881.0;;;19.32;52.46
59654;BME280;66556;52.008;5.432;2023-03-14T02:01:26;98880.0;;;19.16;52.93
59654;BME280;66556;52.008;5.432;2023-03-14T02:03:07;98884.0;;;19.02;52.47
59654;BME280;66556;52.008;5.432;2023-03-14T02:04:51;98883.0;;;19.27;53.04
59654;BME280;66556;52.008;5.432;2023-03-14T02:08:14;98892.0;;;18.7;54.02
59654;BME280;66556;52.008;5.432;2023-03-14T02:09:53;98889.0;;;19.3;52.94
59654;BME280;66556;52.008;5.432;2023-03-14T02:11:32;98880.0;;;18.34;55.18
59654;BME280;66556;52.008;5.432;2023-03-14T02:13:10;98880.0;;;18.75;54.17
59654;BME280;66556;52.008;5.432;2023-03-14T02:16:24;98876.0;;;19.0;54.01
59654;BME280;66556;52.008;5.432;2023-03-14T02:18:02;98873.0;;;18.8;54.01
59654;BME280;66556;52.008;5.432;2023-03-14T02:19:50;98867.0;;;18.78;54.05
59654;BME280;66556;52.008;5.432;2023-03-14T02:21:40;98873.0;;;18.8;54.37
59654;BME280;66556;52.008;5.432;2023-03-14T02:25:13;98868.0;;;18.77;54.57
59654;BME280;66556;52.008;5.432;2023-03-14T02:27:25;98865.0;;;18.66;55.14
59654;BME280;66556;52.008;5.432;2023-03-14T02:29:01;98862.0;;;18.87;54.08
59654;BME280;66556;52.008;5.432;2023-03-14T02:30:37;98856.0;;;18.47;56.21
59654;BME280;66556;52.008;5.432;2023-03-14T02:32:16;98857.0;;;18.87;54.77
59654;BME280;66556;52.008;5.432;2023-03-14T02:35:37;98856.0;;;18.77;54.72
59654;BME280;66556;52.008;5.432;2023-03-14T02:37:18;98858.0;;;19.14;53.6
59654;BME280;66556;52.008;5.432;2023-03-14T02:39:03;98857.0;;;18.43;56.47
59654;BME280;66556;52.008;5.432;2023-03-14T02:40:42;98855.0;;;18.38;56.75
59654;BME280;66556;52.008;5.432;2023-03-14T02:43:58;98851.0;;;18.61;55.87
59654;BME280;66556;52.008;5.432;2023-03-14T02:45:39;98845.0;;;18.8;54.75
59654;BME280;66556;52.008;5.432;2023-03-14T02:47:20;98842.0;;;18.84;54.66
59654;BME280;66556;52.008;5.432;2023-03-14T02:49:02;98837.0;;;19.07;53.97
59654;BME280;66556;52.008;5.432;2023-03-14T02:52:17;98838.0;;;19.04;53.95
59654;BME280;66556;52.008;5.432;2023-03-14T02:53:53;98841.0;;;18.36;56.36
59654;BME280;66556;52.008;5.432;2023-03-14T02:55:29;98837.0;;;18.7;55.56
59654;BME280;66556;52.008;5.432;2023-03-14T02:57:05;98837.0;;;18.03;57.24
59654;BME280;66556;52.008;5.432;2023-03-14T03:00:18;98842.0;;;18.27;57.07
59654;BME280;66556;52.008;5.432;2023-03-14T03:01:55;98835.0;;;18.27;56.6
59654;BME280;66556;52.008;5.432;2023-03-14T03:03:31;98835.0;;;18.61;55.54
59654;BME280;66556;52.008;5.432;2023-03-14T03:06:43;98838.0;;;18.47;55.23
59654;BME280;66556;52.008;5.432;2023-03-14T03:08:20;98839.0;;;18.52;55.01
59654;BME280;66556;52.008;5.432;2023-03-14T03:09:57;98833.0;;;18.45;55.61
59654;BME280;66556;52.008;5.432;2023-03-14T03:13:10;98832.0;;;19.05;53.77
59654;BME280;66556;52.008;5.432;2023-03-14T03:14:46;98843.0;;;18.86;53.98
59654;BME280;66556;52.008;5.432;2023-03-14T03:16:22;98834.0;;;18.59;54.54
59654;BME280;66556;52.008;5.432;2023-03-14T03:17:58;98839.0;;;18.5;55.41
59654;BME280;66556;52.008;5.432;2023-03-14T03:21:11;98834.0;;;18.3;56.13
59654;BME280;66556;52.008;5.432;2023-03-14T03:22:47;98830.0;;;18.39;55.82
59654;BME280;66556;52.008;5.432;2023-03-14T03:24:24;98830.0;;;18.84;55.07
59654;BME280;66556;52.008;5.432;2023-03-14T03:27:37;98825.0;;;18.91;53.89
59654;BME280;66556;52.008;5.432;2023-03-14T03:29:14;98825.0;;;18.75;54.17
59654;BME280;66556;52.008;5.432;2023-03-14T03:30:50;98825.0;;;19.54;51.38
59654;BME280;66556;52.008;5.432;2023-03-14T03:34:03;98819.0;;;19.07;53.04
59654;BME280;66556;52.008;5.432;2023-03-14T03:35:44;98820.0;;;18.86;53.63
59654;BME280;66556;52.008;5.432;2023-03-14T03:37:20;98818.0;;;18.77;53.94
59654;BME280;66556;52.008;5.432;2023-03-14T03:38:56;98814.0;;;18.78;53.52
59654;BME280;66556;52.008;5.432;2023-03-14T03:42:09;98815.0;;;18.56;54.3
59654;BME280;66556;52.008;5.432;2023-03-14T03:43:45;98818.0;;;18.91;53.08
59654;BME280;66556;52.008;5.432;2023-03-14T03:45:21;98815.0;;;18.78;53.24
59654;BME280;66556;52.008;5.432;2023-03-14T03:48:34;98809.0;;;18.96;52.48
59654;BME280;66556;52.008;5.432;2023-03-14T03:50:10;98801.0;;;19.23;51.41
59654;BME280;66556;52.008;5.432;2023-03-14T03:51:46;98801.0;;;19.27;51.36
59654;BME280;66556;52.008;5.432;2023-03-14T03:54:59;98803.0;;;18.95;52.15
59654;BME280;66556;52.008;5.432;2023-03-14T03:56:35;98805.0;;;18.81;52.08
59654;BME280;66556;52.008;5.432;2023-03-14T03:58:11;98802.0;;;19.43;50.96
59654;BME280;66556;52.008;5.432;2023-03-14T04:01:23;98807.0;;;19.46;51.02
59654;BME280;66556;52.008;5.432;2023-03-14T04:02:59;98807.0;;;18.84;52.04
59654;BME280;66556;52.008;5.432;2023-03-14T04:04:36;98812.0;;;18.84;52.56
59654;BME280;66556;52.008;5.432;2023-03-14T04:06:12;98805.0;;;19.31;51.33
59654;BME280;66556;52.008;5.432;2023-03-14T04:09:25;98805.0;;;18.73;52.79
59654;BME280;66556;52.008;5.432;2023-03-14T04:11:02;98803.0;;;18.98;52.06
59654;BME280;66556;52.008;5.432;2023-03-14T04:12:39;98809.0;;;18.7;52.59
59654;BME280;66556;52.008;5.432;2023-03-14T04:15:52;98809.0;;;18.59;53.04
59654;BME280;66556;52.008;5.432;2023-03-14T04:17:28;98811.0;;;18.93;52.29
59654;BME280;66556;52.008;5.432;2023-03-14T04:19:04;98811.0;;;18.75;52.72
59654;BME280;66556;52.008;5.432;2023-03-14T04:22:17;98814.0;;;18.64;53.19
59654;BME280;66556;52.008;5.432;2023-03-14T04:23:54;98808.0;;;18.75;52.98
59654;BME280;66556;52.008;5.432;2023-03-14T04:25:30;98812.0;;;18.79;52.62
59654;BME280;66556;52.008;5.432;2023-03-14T04:27:06;98811.0;;;18.95;51.75
59654;BME280;66556;52.008;5.432;2023-03-14T04:30:19;98807.0;;;18.34;53.34
59654;BME280;66556;52.008;5.432;2023-03-14T04:31:55;98807.0;;;18.86;52.09
59654;BME280;66556;52.008;5.432;2023-03-14T04:33:32;98801.0;;;18.73;52.35
59654;BME280;66556;52.008;5.432;2023-03-14T04:36:44;98801.0;;;19.12;51.3
59654;BME280;66556;52.008;5.432;2023-03-14T04:38:20;98806.0;;;18.89;52.35
59654;BME280;66556;52.008;5.432;2023-03-14T04:39:56;98796.0;;;18.7;52.69
59654;BME280;66556;52.008;5.432;2023-03-14T04:43:10;98801.0;;;19.05;51.41
59654;BME280;66556;52.008;5.432;2023-03-14T04:44:46;98797.0;;;18.78;52.08
59654;BME280;66556;52.008;5.432;2023-03-14T04:46:23;98797.0;;;19.0;51.77
59654;BME280;66556;52.008;5.432;2023-03-14T04:47:59;98798.0;;;19.03;51.35
59654;BME280;66556;52.008;5.432;2023-03-14T04:51:11;98796.0;;;18.79;51.98
59654;BME280;66556;52.008;5.432;2023-03-14T04:52:47;98794.0;;;18.82;51.21
59654;BME280;66556;52.008;5.432;2023-03-14T04:54:23;98799.0;;;19.11;51.32
59654;BME280;66556;52.008;5.432;2023-03-14T04:57:36;98795.0;;;19.02;51.16
59654;BME280;66556;52.008;5.432;2023-03-14T04:59:12;98794.0;;;18.77;52.06
59654;BME280;66556;52.008;5.432;2023-03-14T05:00:49;98797.0;;;18.77;51.7
59654;BME280;66556;52.008;5.432;2023-03-14T05:04:02;98786.0;;;19.27;50.85
59654;BME280;66556;52.008;5.432;2023-03-14T05:05:38;98783.0;;;18.52;52.72
59654;BME280;66556;52.008;5.432;2023-03-14T05:07:14;98784.0;;;19.16;51.83
59654;BME280;66556;52.008;5.432;2023-03-14T05:08:51;98788.0;;;19.02;51.71
59654;BME280;66556;52.008;5.432;2023-03-14T05:12:03;98784.0;;;19.06;51.75
59654;BME280;66556;52.008;5.432;2023-03-14T05:13:39;98778.0;;;18.96;52.11
59654;BME280;66556;52.008;5.432;2023-03-14T05:15:15;98781.0;;;18.93;52.63
59654;BME280;66556;52.008;5.432;2023-03-14T05:18:27;98781.0;;;18.8;53.16
59654;BME280;66556;52.008;5.432;2023-03-14T05:20:04;98776.0;;;18.62;53.4
59654;BME280;66556;52.008;5.432;2023-03-14T05:21:40;98770.0;;;19.12;52.57
59654;BME280;66556;52.008;5.432;2023-03-14T05:24:53;98772.0;;;18.93;52.76
59654;BME280;66556;52.008;5.432;2023-03-14T05:26:29;98767.0;;;18.54;54.01
59654;BME280;66556;52.008;5.432;2023-03-14T05:28:06;98771.0;;;18.87;54.1
59654;BME280;66556;52.008;5.432;2023-03-14T05:31:18;98765.0;;;18.72;54.87
59654;BME280;66556;52.008;5.432;2023-03-14T05:32:54;98765.0;;;18.52;55.54
59654;BME280;66556;52.008;5.432;2023-03-14T05:34:31;98773.0;;;18.25;56.36
59654;BME280;66556;52.008;5.432;2023-03-14T05:36:07;98769.0;;;18.16;57.16
59654;BME280;66556;52.008;5.432;2023-03-14T05:39:20;98770.0;;;18.41;56.44
59654;BME280;66556;52.008;5.432;2023-03-14T05:40:56;98768.0;;;18.41;56.08
59654;BME280;66556;52.008;5.432;2023-03-14T05:42:33;98768.0;;;18.41;57.14
59654;BME280;66556;52.008;5.432;2023-03-14T05:45:45;98769.0;;;18.27;57.18
59654;BME280;66556;52.008;5.432;2023-03-14T05:47:21;98767.0;;;18.43;56.91
59654;BME280;66556;52.008;5.432;2023-03-14T05:48:57;98772.0;;;18.75;55.91
59654;BME280;66556;52.008;5.432;2023-03-14T05:52:12;98776.0;;;17.93;58.26
59654;BME280;66556;52.008;5.432;2023-03-14T05:53:48;98776.0;;;18.16;58.11
59654;BME280;66556;52.008;5.432;2023-03-14T05:55:25;98769.0;;;18.41;57.08
59654;BME280;66556;52.008;5.432;2023-03-14T05:57:01;98764.0;;;18.22;57.71
59654;BME280;66556;52.008;5.432;2023-03-14T06:00:14;98768.0;;;18.29;57.01
59654;BME280;66556;52.008;5.432;2023-03-14T06:01:50;98763.0;;;18.59;56.67
59654;BME280;66556;52.008;5.432;2023-03-14T06:03:26;98768.0;;;18.53;56.62
59654;BME280;66556;52.008;5.432;2023-03-14T06:06:41;98769.0;;;18.52;56.79
59654;BME280;66556;52.008;5.432;2023-03-14T06:08:17;98768.0;;;18.93;55.94
59654;BME280;66556;52.008;5.432;2023-03-14T06:09:53;98767.0;;;18.28;57.4
59654;BME280;66556;52.008;5.432;2023-03-14T06:13:05;98761.0;;;18.72;57.08
59654;BME280;66556;52.008;5.432;2023-03-14T06:14:41;98768.0;;;18.34;57.81
59654;BME280;66556;52.008;5.432;2023-03-14T06:16:18;98767.0;;;18.48;58.1
59654;BME280;66556;52.008;5.432;2023-03-14T06:17:54;98761.0;;;18.55;57.28
59654;BME280;66556;52.008;5.432;2023-03-14T06:21:07;98761.0;;;18.38;58.46
59654;BME280;66556;52.008;5.432;2023-03-14T06:22:44;98760.0;;;18.61;58.01
59654;BME280;66556;52.008;5.432;2023-03-14T06:24:20;98760.0;;;18.2;58.9
59654;BME280;66556;52.008;5.432;2023-03-14T06:27:32;98755.0;;;18.43;58.82
59654;BME280;66556;52.008;5.432;2023-03-14T06:29:10;98765.0;;;18.64;57.09
59654;BME280;66556;52.008;5.432;2023-03-14T06:30:45;98766.0;;;18.47;58.14
59654;BME280;66556;52.008;5.432;2023-03-14T06:33:58;98771.0;;;18.8;57.2
59654;BME280;66556;52.008;5.432;2023-03-14T06:35:35;98772.0;;;18.8;57.28
59654;BME280;66556;52.008;5.432;2023-03-14T06:37:11;98769.0;;;19.25;56.23
59654;BME280;66556;52.008;5.432;2023-03-14T06:40:23;98772.0;;;19.11;56.08
59654;BME280;66556;52.008;5.432;2023-03-14T06:41:59;98767.0;;;19.11;56.17
59654;BME280;66556;52.008;5.432;2023-03-14T06:43:36;98780.0;;;18.93;57.02
59654;BME280;66556;52.008;5.432;2023-03-14T06:45:12;98789.0;;;18.82;56.57
59654;BME280;66556;52.008;5.432;2023-03-14T06:48:25;98824.0;;;19.31;56.08
59654;BME280;66556;52.008;5.432;2023-03-14T06:50:03;98834.0;;;19.16;55.26
59654;BME280;66556;52.008;5.432;2023-03-14T06:51:39;98842.0;;;19.46;54.64
59654;BME280;66556;52.008;5.432;2023-03-14T06:54:52;98859.0;;;18.95;53.76
59654;BME280;66556;52.008;5.432;2023-03-14T06:56:29;98864.0;;;18.93;53.19
59654;BME280;66556;52.008;5.432;2023-03-14T06:58:05;98873.0;;;18.87;52.38
59654;BME280;66556;52.008;5.432;2023-03-14T07:01:20;98873.0;;;19.2;51.21
59654;BME280;66556;52.008;5.432;2023-03-14T07:02:58;98874.0;;;19.12;51.81
59654;BME280;66556;52.008;5.432;2023-03-14T07:04:34;98887.0;;;18.98;51.69
59654;BME280;66556;52.008;5.432;2023-03-14T07:06:10;98896.0;;;18.84;51.29
59654;BME280;66556;52.008;5.432;2023-03-14T07:09:23;98906.0;;;19.06;50.91
59654;BME280;66556;52.008;5.432;2023-03-14T07:10:59;98906.0;;;18.68;51.6
59654;BME280;66556;52.008;5.432;2023-03-14T07:12:35;98916.0;;;19.09;50.58
59654;BME280;66556;52.008;5.432;2023-03-14T07:15:47;98922.0;;;18.91;50.97
59654;BME280;66556;52.008;5.432;2023-03-14T07:17:23;98926.0;;;18.41;52.3
59654;BME280;66556;52.008;5.432;2023-03-14T07:18:59;98930.0;;;18.54;52.28
59654;BME280;66556;52.008;5.432;2023-03-14T07:22:13;98927.0;;;18.71;50.97
59654;BME280;66556;52.008;5.432;2023-03-14T07:23:49;98936.0;;;18.84;50.95
59654;BME280;66556;52.008;5.432;2023-03-14T07:25:25;98948.0;;;18.78;50.83
59654;BME280;66556;52.008;5.432;2023-03-14T07:27:02;98963.0;;;18.93;50.21
59654;BME280;66556;52.008;5.432;2023-03-14T07:30:15;98971.0;;;18.68;50.65
59654;BME280;66556;52.008;5.432;2023-03-14T07:31:50;98986.0;;;18.96;49.87
59654;BME280;66556;52.008;5.432;2023-03-14T07:33:26;98989.0;;;18.75;50.72
59654;BME280;66556;52.008;5.432;2023-03-14T07:36:40;99002.0;;;18.97;50.33
59654;BME280;66556;52.008;5.432;2023-03-14T07:38:16;99005.0;;;18.88;50.67
59654;BME280;66556;52.008;5.432;2023-03-14T07:39:52;99016.0;;;18.86;50.81
59654;BME280;66556;52.008;5.432;2023-03-14T07:43:05;99014.0;;;18.78;51.03
59654;BME280;66556;52.008;5.432;2023-03-14T07:44:41;99026.0;;;18.45;51.82
59654;BME280;66556;52.008;5.432;2023-03-14T07:46:17;99041.0;;;18.59;51.79
59654;BME280;66556;52.008;5.432;2023-03-14T07:47:53;99051.0;;;18.2;52.74
59654;BME280;66556;52.008;5.432;2023-03-14T07:51:05;99055.0;;;18.37;52.14
59654;BME280;66556;52.008;5.432;2023-03-14T07:52:41;99059.0;;;18.2;52.68
59654;BME280;66556;52.008;5.432;2023-03-14T07:54:17;99071.0;;;18.43;52.31
59654;BME280;66556;52.008;5.432;2023-03-14T07:57:29;99080.0;;;18.55;52.1
59654;BME280;66556;52.008;5.432;2023-03-14T07:59:05;99083.0;;;18.43;51.98
59654;BME280;66556;52.008;5.432;2023-03-14T08:00:42;99096.0;;;18.55;51.43
59654;BME280;66556;52.008;5.432;2023-03-14T08:03:55;99106.0;;;18.52;51.87
59654;BME280;66556;52.008;5.432;2023-03-14T08:05:34;99119.0;;;18.11;52.29
59654;BME280;66556;52.008;5.432;2023-03-14T08:07:10;99125.0;;;18.16;51.3
59654;BME280;66556;52.008;5.432;2023-03-14T08:08:46;99131.0;;;18.16;50.78
59654;BME280;66556;52.008;5.432;2023-03-14T08:11:58;99133.0;;;18.34;51.09
59654;BME280;66556;52.008;5.432;2023-03-14T08:13:36;99141.0;;;18.25;51.24
59654;BME280;66556;52.008;5.432;2023-03-14T08:15:13;99151.0;;;18.41;50.94
59654;BME280;66556;52.008;5.432;2023-03-14T08:18:26;99160.0;;;18.3;51.43
59654;BME280;66556;52.008;5.432;2023-03-14T08:20:03;99172.0;;;18.13;51.5
59654;BME280;66556;52.008;5.432;2023-03-14T08:21:39;99176.0;;;18.02;51.59
59654;BME280;66556;52.008;5.432;2023-03-14T08:24:51;99189.0;;;17.86;51.39
59654;BME280;66556;52.008;5.432;2023-03-14T08:26:27;99200.0;;;17.18;51.98
59654;BME280;66556;52.008;5.432;2023-03-14T08:28:04;99221.0;;;17.09;52.14
59654;BME280;66556;52.008;5.432;2023-03-14T08:29:41;99222.0;;;16.55;52.76
59654;BME280;66556;52.008;5.432;2023-03-14T08:32:53;99237.0;;;16.97;51.63
59654;BME280;66556;52.008;5.432;2023-03-14T08:34:33;99239.0;;;16.87;51.51
59654;BME280;66556;52.008;5.432;2023-03-14T08:36:10;99252.0;;;16.52;51.27
59654;BME280;66556;52.008;5.432;2023-03-14T08:39:23;99267.0;;;16.81;52.15
59654;BME280;66556;52.008;5.432;2023-03-14T08:41:00;99282.0;;;16.4;52.05
59654;BME280;66556;52.008;5.432;2023-03-14T08:42:37;99288.0;;;16.5;52.34
59654;BME280;66556;52.008;5.432;2023-03-14T08:45:50;99301.0;;;16.55;52.54
59654;BME280;66556;52.008;5.432;2023-03-14T08:47:26;99312.0;;;15.97;53.28
59654;BME280;66556;52.008;5.432;2023-03-14T08:49:03;99326.0;;;16.41;51.82
59654;BME280;66556;52.008;5.432;2023-03-14T08:50:39;99338.0;;;16.43;51.73
59654;BME280;66556;52.008;5.432;2023-03-14T08:53:52;99358.0;;;16.16;52.14
59654;BME280;66556;52.008;5.432;2023-03-14T08:55:29;99360.0;;;15.89;52.51
59654;BME280;66556;52.008;5.432;2023-03-14T08:57:05;99366.0;;;15.94;52.74
59654;BME280;66556;52.008;5.432;2023-03-14T09:00:19;99382.0;;;16.07;52.37
59654;BME280;66556;52.008;5.432;2023-03-14T09:01:55;99380.0;;;16.04;52.42
59654;BME280;66556;52.008;5.432;2023-03-14T09:03:31;99386.0;;;16.18;52.42
59654;BME280;66556;52.008;5.432;2023-03-14T09:06:44;99397.0;;;15.94;51.92
59654;BME280;66556;52.008;5.432;2023-03-14T09:08:21;99400.0;;;16.12;52.22
59654;BME280;66556;52.008;5.432;2023-03-14T09:09:57;99411.0;;;16.64;51.33
59654;BME280;66556;52.008;5.432;2023-03-14T09:11:33;99427.0;;;16.79;51.92
59654;BME280;66556;52.008;5.432;2023-03-14T09:14:45;99426.0;;;16.75;50.93
59654;BME280;66556;52.008;5.432;2023-03-14T09:16:21;99441.0;;;16.48;49.64
59654;BME280;66556;52.008;5.432;2023-03-14T09:17:57;99439.0;;;16.54;50.77
59654;BME280;66556;52.008;5.432;2023-03-14T09:21:10;99447.0;;;16.14;50.75
59654;BME280;66556;52.008;5.432;2023-03-14T09:22:46;99455.0;;;16.82;48.57
59654;BME280;66556;52.008;5.432;2023-03-14T09:24:22;99459.0;;;17.18;49.05
59654;BME280;66556;52.008;5.432;2023-03-14T09:27:35;99468.0;;;16.86;49.25
59654;BME280;66556;52.008;5.432;2023-03-14T09:29:11;99474.0;;;16.59;48.42
59654;BME280;66556;52.008;5.432;2023-03-14T09:30:47;99483.0;;;17.03;49.16
59654;BME280;66556;52.008;5.432;2023-03-14T09:33:59;99484.0;;;16.46;49.25
59654;BME280;66556;52.008;5.432;2023-03-14T09:35:36;99502.0;;;16.48;48.13
59654;BME280;66556;52.008;5.432;2023-03-14T09:37:12;99517.0;;;16.03;48.4
59654;BME280;66556;52.008;5.432;2023-03-14T09:38:48;99524.0;;;16.0;47.22
59654;BME280;66556;52.008;5.432;2023-03-14T09:42:13;99546.0;;;16.53;46.95
59654;BME280;66556;52.008;5.432;2023-03-14T09:43:59;99550.0;;;16.16;46.85
59654;BME280;66556;52.008;5.432;2023-03-14T09:45:40;99563.0;;;17.05;46.28
59654;BME280;66556;52.008;5.432;2023-03-14T09:47:18;99563.0;;;16.84;46.16
59654;BME280;66556;52.008;5.432;2023-03-14T09:50:36;99568.0;;;16.72;47.13
59654;BME280;66556;52.008;5.432;2023-03-14T09:52:16;99574.0;;;16.61;46.96
59654;BME280;66556;52.008;5.432;2023-03-14T09:53:55;99586.0;;;16.73;46.87
59654;BME280;66556;52.008;5.432;2023-03-14T09:55:31;99593.0;;;16.93;47.28
59654;BME280;66556;52.008;5.432;2023-03-14T09:58:51;99598.0;;;17.23;45.97
59654;BME280;66556;52.008;5.432;2023-03-14T10:00:31;99606.0;;;17.16;46.73
59654;BME280;66556;52.008;5.432;2023-03-14T10:02:15;99607.0;;;17.32;45.86
59654;BME280;66556;52.008;5.432;2023-03-14T10:03:55;99617.0;;;17.36;44.96
59654;BME280;66556;52.008;5.432;2023-03-14T10:07:11;99623.0;;;17.05;45.55
59654;BME280;66556;52.008;5.432;2023-03-14T10:08:50;99630.0;;;17.23;44.97
59654;BME280;66556;52.008;5.432;2023-03-14T10:10:26;99642.0;;;17.77;45.97
59654;BME280;66556;52.008;5.432;2023-03-14T10:13:47;99649.0;;;17.59;44.77
59654;BME280;66556;52.008;5.432;2023-03-14T10:15:28;99660.0;;;17.16;44.05
59654;BME280;66556;52.008;5.432;2023-03-14T10:17:08;99660.0;;;17.46;44.85
59654;BME280;66556;52.008;5.432;2023-03-14T10:18:46;99678.0;;;18.0;44.81
59654;BME280;66556;52.008;5.432;2023-03-14T10:22:12;99683.0;;;17.45;43.15
59654;BME280;66556;52.008;5.432;2023-03-14T10:23:50;99694.0;;;17.75;43.19
59654;BME280;66556;52.008;5.432;2023-03-14T10:25:29;99697.0;;;17.98;43.02
59654;BME280;66556;52.008;5.432;2023-03-14T10:27:18;99707.0;;;17.41;43.55
59654;BME280;66556;52.008;5.432;2023-03-14T10:29:01;99721.0;;;17.28;43.87
59654;BME280;66556;52.008;5.432;2023-03-14T10:32:20;99742.0;;;17.57;43.66
59654;BME280;66556;52.008;5.432;2023-03-14T10:34:04;99751.0;;;17.13;44.11
59654;BME280;66556;52.008;5.432;2023-03-14T10:35:41;99764.0;;;17.03;44.87
59654;BME280;66556;52.008;5.432;2023-03-14T10:37:20;99765.0;;;17.0;44.95
59654;BME280;66556;52.008;5.432;2023-03-14T10:40:53;99782.0;;;16.71;45.9
59654;BME280;66556;52.008;5.432;2023-03-14T10:42:32;99790.0;;;16.82;46.66
59654;BME280;66556;52.008;5.432;2023-03-14T10:44:10;99796.0;;;17.3;46.59
59654;BME280;66556;52.008;5.432;2023-03-14T10:45:52;99802.0;;;17.54;45.94
59654;BME280;66556;52.008;5.432;2023-03-14T10:49:26;99805.0;;;17.77;44.73
59654;BME280;66556;52.008;5.432;2023-03-14T10:51:04;99817.0;;;17.68;44.14
59654;BME280;66556;52.008;5.432;2023-03-14T10:52:48;99822.0;;;17.34;43.79
59654;BME280;66556;52.008;5.432;2023-03-14T10:54:24;99833.0;;;17.21;44.09
59654;BME280;66556;52.008;5.432;2023-03-14T10:57:43;99844.0;;;17.41;44.41
59654;BME280;66556;52.008;5.432;2023-03-14T10:59:19;99850.0;;;17.59;45.11
59654;BME280;66556;52.008;5.432;2023-03-14T11:01:02;99853.0;;;17.7;44.53
59654;BME280;66556;52.008;5.432;2023-03-14T11:02:55;99860.0;;;17.21;43.37
59654;BME280;66556;52.008;5.432;2023-03-14T11:04:55;99876.0;;;17.52;43.33
59654;BME280;66556;52.008;5.432;2023-03-14T11:06:40;99886.0;;;17.59;43.12
59654;BME280;66556;52.008;5.432;2023-03-14T11:10:12;99895.0;;;18.04;43.04
59654;BME280;66556;52.008;5.432;2023-03-14T11:11:54;99913.0;;;17.86;43.03
59654;BME280;66556;52.008;5.432;2023-03-14T11:13:44;99917.0;;;17.56;43.04
59654;BME280;66556;52.008;5.432;2023-03-14T11:15:31;99923.0;;;16.98;43.68